Time;durP1;ratioP1;P1;durP2;ratioP2;P2;SDS_P1;SDS_P2;PMS_P1;PMS_P2;Temp;Humidity;BMP_temperature;BMP_pressure;BME280_temperature;BME280_humidity;BME280_pressure;Samples;Min_cycle;Max_cycle;Signal;HPM_P1;HPM_P2
2022/10/11 00:00:29;;;;;;;10.45;7.57;;;13.80;46.30;;;;;;5091947;28;20183;-42
2022/10/11 00:02:55;;;;;;;10.98;7.22;;;13.80;46.30;;;;;;5092202;28;20275;-43
2022/10/11 00:05:21;;;;;;;12.88;7.85;;;13.80;46.30;;;;;;5092305;28;20313;-44
2022/10/11 00:07:47;;;;;;;12.43;9.43;;;13.80;46.20;;;;;;5091267;28;20290;-43
2022/10/11 00:10:13;;;;;;;9.83;6.97;;;13.70;46.50;;;;;;5091851;28;20413;-43
2022/10/11 00:12:39;;;;;;;11.80;7.83;;;13.80;46.50;;;;;;5091766;28;20207;-43
2022/10/11 00:15:06;;;;;;;11.57;7.13;;;13.80;46.50;;;;;;5091880;28;20688;-43
2022/10/11 00:17:32;;;;;;;10.82;6.72;;;13.80;46.60;;;;;;5091496;28;20184;-44
2022/10/11 00:19:58;;;;;;;10.70;6.60;;;13.80;46.60;;;;;;5093987;28;20713;-43
2022/10/11 00:22:24;;;;;;;11.50;8.07;;;13.80;46.70;;;;;;5095668;28;20207;-43
2022/10/11 00:24:51;;;;;;;8.47;6.77;;;13.90;47.10;;;;;;5095603;28;20180;-44
2022/10/11 00:27:17;;;;;;;11.88;7.20;;;13.90;47.40;;;;;;5095035;28;20242;-43
2022/10/11 00:29:43;;;;;;;7.38;6.05;;;14.00;47.50;;;;;;5095923;28;20176;-43
2022/10/11 00:32:08;;;;;;;9.67;5.80;;;14.00;47.40;;;;;;5095563;28;20222;-43
2022/10/11 00:34:34;;;;;;;9.70;6.97;;;14.10;47.40;;;;;;5095430;28;20187;-43
2022/10/11 00:37:00;;;;;;;14.53;7.57;;;14.20;47.60;;;;;;5094947;28;20216;-43
2022/10/11 00:39:26;;;;;;;9.60;6.73;;;14.20;48.00;;;;;;5095357;28;20262;-43
2022/10/11 00:41:51;;;;;;;8.13;6.13;;;14.30;48.10;;;;;;5095412;28;20268;-43
2022/10/11 00:44:24;;;;;;;11.83;8.17;;;14.30;47.90;;;;;;5095302;28;20178;-43
2022/10/11 00:47:06;;;;;;;9.30;7.65;;;14.40;47.80;;;;;;5094677;28;20191;-43
2022/10/11 00:50:00;;;;;;;8.70;7.40;;;14.40;47.80;;;;;;5095385;28;20222;-43
2022/10/11 00:52:33;;;;;;;10.18;6.53;;;14.50;48.20;;;;;;5095135;28;20188;-43
2022/10/11 00:55:06;;;;;;;9.23;6.15;;;14.50;48.10;;;;;;5095322;28;20183;-43
2022/10/11 00:57:35;;;;;;;15.98;6.20;;;14.50;48.10;;;;;;5094862;28;20163;-43
2022/10/11 01:00:06;;;;;;;9.20;6.80;;;14.60;48.20;;;;;;5095015;28;20754;-43
2022/10/11 01:02:32;;;;;;;8.07;7.20;;;14.60;48.10;;;;;;5094889;28;20290;-43
2022/10/11 01:04:58;;;;;;;11.33;7.80;;;14.70;48.20;;;;;;5094966;28;20267;-43
2022/10/11 01:07:26;;;;;;;10.40;6.77;;;14.70;48.20;;;;;;5094151;28;20207;-43
2022/10/11 01:09:52;;;;;;;16.17;6.88;;;14.80;48.30;;;;;;5094960;28;20431;-43
2022/10/11 01:12:22;;;;;;;10.53;6.20;;;14.80;48.40;;;;;;5094591;28;20288;-43
2022/10/11 01:14:50;;;;;;;11.52;7.20;;;14.80;48.30;;;;;;5094883;28;20402;-43
2022/10/11 01:17:34;;;;;;;9.23;6.72;;;14.80;48.40;;;;;;5094085;28;20172;-43
2022/10/11 01:20:06;;;;;;;6.80;5.88;;;14.90;48.50;;;;;;5094751;28;20167;-43
2022/10/11 01:22:55;;;;;;;7.50;6.75;;;14.90;48.50;;;;;;5094785;28;20196;-43
2022/10/11 01:25:39;;;;;;;9.15;7.07;;;14.90;48.40;;;;;;5094551;28;20160;-43
2022/10/11 01:28:18;;;;;;;7.70;5.82;;;14.90;48.50;;;;;;5094509;28;20168;-42
2022/10/11 01:30:45;;;;;;;9.10;6.55;;;15.00;48.60;;;;;;5093925;28;20163;-43
2022/10/11 01:33:23;;;;;;;8.63;5.72;;;15.00;48.60;;;;;;5094382;28;20196;-43
2022/10/11 01:35:55;;;;;;;16.50;6.70;;;15.00;48.60;;;;;;5094014;28;20189;-43
2022/10/11 01:38:41;;;;;;;7.05;6.35;;;15.10;48.70;;;;;;5094584;28;20176;-43
2022/10/11 01:41:15;;;;;;;9.20;6.75;;;15.10;48.60;;;;;;5094278;28;20202;-43
2022/10/11 01:43:42;;;;;;;8.90;6.00;;;15.20;48.80;;;;;;5094304;28;20183;-43
2022/10/11 01:46:09;;;;;;;8.70;6.10;;;15.20;48.80;;;;;;5093368;28;20203;-43
2022/10/11 01:48:49;;;;;;;9.07;5.70;;;15.20;48.80;;;;;;5094301;28;20298;-43
2022/10/11 01:51:17;;;;;;;9.45;5.97;;;15.30;49.00;;;;;;5093875;28;20184;-43
2022/10/11 01:53:55;;;;;;;8.70;6.40;;;15.30;49.00;;;;;;5094146;28;20180;-43
2022/10/11 01:56:41;;;;;;;11.32;5.57;;;15.30;48.90;;;;;;5093653;28;20213;-43
2022/10/11 01:59:38;;;;;;;7.75;6.03;;;15.40;48.90;;;;;;5093690;28;20184;-43
2022/10/11 02:02:06;;;;;;;7.28;6.10;;;15.40;48.90;;;;;;5082774;28;20214;-43
2022/10/11 02:04:49;;;;;;;8.63;5.72;;;15.40;48.90;;;;;;5093849;28;20706;-43
2022/10/11 02:07:42;;;;;;;9.05;5.45;;;15.40;48.90;;;;;;5093327;28;20196;-43
2022/10/11 02:10:31;;;;;;;11.15;6.35;;;15.50;49.20;;;;;;5093710;28;20164;-43
2022/10/11 02:13:05;;;;;;;17.88;8.00;;;15.50;49.40;;;;;;5093366;28;20215;-43
2022/10/11 02:15:32;;;;;;;12.20;7.65;;;15.50;50.30;;;;;;5093207;28;20785;-43
2022/10/11 02:18:05;;;;;;;12.88;8.02;;;15.50;49.70;;;;;;5107501;22;20764;-42
2022/10/11 02:20:33;;;;;;;12.48;6.97;;;15.60;49.80;;;;;;5101898;28;20168;-44
2022/10/11 02:23:24;;;;;;;7.43;6.30;;;15.70;50.00;;;;;;5093524;28;20647;-44
2022/10/11 02:25:52;;;;;;;9.40;6.03;;;15.80;50.00;;;;;;5092824;28;20186;-43
2022/10/11 02:28:24;;;;;;;9.07;7.03;;;15.80;49.90;;;;;;5093330;28;20328;-43
2022/10/11 02:30:51;;;;;;;10.80;6.07;;;15.80;49.90;;;;;;5093434;28;20208;-42
2022/10/11 02:33:25;;;;;;;8.65;7.50;;;15.90;50.00;;;;;;5093562;28;20176;-43
2022/10/11 02:35:57;;;;;;;8.07;7.28;;;15.90;50.00;;;;;;5092821;28;20180;-42
2022/10/11 02:38:34;;;;;;;12.02;7.25;;;16.00;50.00;;;;;;5093439;28;20196;-42
2022/10/11 02:41:14;;;;;;;11.20;6.10;;;16.10;50.00;;;;;;5093282;28;20300;-42
2022/10/11 02:43:46;;;;;;;7.85;6.82;;;16.20;49.90;;;;;;5092206;28;20153;-42
2022/10/11 02:46:13;;;;;;;6.10;5.50;;;16.20;49.80;;;;;;5092611;28;20222;-42
2022/10/11 02:48:39;;;;;;;8.25;5.93;;;16.20;49.80;;;;;;5092928;28;20191;-44
2022/10/11 02:51:05;;;;;;;8.10;5.70;;;16.20;49.80;;;;;;5093154;28;20179;-42
2022/10/11 02:53:31;;;;;;;10.73;4.72;;;16.20;49.80;;;;;;5092947;28;20237;-43
2022/10/11 02:55:56;;;;;;;10.00;5.40;;;16.20;49.90;;;;;;5092351;28;20175;-42
2022/10/11 02:58:24;;;;;;;11.43;5.10;;;16.30;50.00;;;;;;5092793;28;20210;-43
2022/10/11 03:00:50;;;;;;;6.85;5.70;;;16.30;50.10;;;;;;5092704;28;20588;-43
2022/10/11 03:03:15;;;;;;;6.10;4.70;;;16.40;50.00;;;;;;5092801;28;20255;-43
2022/10/11 03:05:42;;;;;;;10.20;6.07;;;16.40;49.90;;;;;;5091968;28;20409;-43
2022/10/11 03:08:14;;;;;;;8.45;5.13;;;16.40;50.00;;;;;;5092422;28;20203;-42
2022/10/11 03:10:40;;;;;;;7.95;4.88;;;16.40;49.80;;;;;;5092692;28;20170;-43
2022/10/11 03:13:06;;;;;;;5.72;4.35;;;16.40;49.90;;;;;;5092617;28;20260;-43
2022/10/11 03:15:32;;;;;;;8.02;4.50;;;16.40;49.90;;;;;;5092167;28;20179;-42
2022/10/11 03:17:58;;;;;;;7.13;4.30;;;16.40;49.70;;;;;;5092283;28;20199;-42
2022/10/11 03:20:24;;;;;;;7.50;4.43;;;16.40;49.70;;;;;;5092476;28;20936;-43
2022/10/11 03:22:50;;;;;;;8.57;4.75;;;16.50;49.70;;;;;;5091220;28;20199;-43
2022/10/11 03:25:16;;;;;;;7.90;5.00;;;16.40;49.60;;;;;;5092380;28;20203;-44
2022/10/11 03:27:42;;;;;;;7.22;3.72;;;16.40;49.50;;;;;;5091844;28;20742;-43
2022/10/11 03:30:09;;;;;;;6.73;3.20;;;16.40;49.40;;;;;;5092376;28;20262;-43
2022/10/11 03:32:35;;;;;;;12.18;3.20;;;16.40;49.30;;;;;;5092613;28;20198;-41
2022/10/11 03:35:01;;;;;;;7.83;2.60;;;16.40;49.20;;;;;;5092389;28;20203;-43
2022/10/11 03:37:27;;;;;;;4.93;3.27;;;16.40;49.00;;;;;;5091591;28;20610;-42
2022/10/11 03:39:53;;;;;;;5.27;2.50;;;16.40;48.80;;;;;;5092299;28;20956;-42
2022/10/11 03:42:18;;;;;;;6.53;2.40;;;16.40;48.60;;;;;;5092211;28;20459;-43
2022/10/11 03:44:44;;;;;;;6.43;2.40;;;16.30;48.50;;;;;;5092205;28;20172;-44
2022/10/11 03:47:11;;;;;;;5.73;2.10;;;16.30;48.20;;;;;;5091683;28;20454;-43
2022/10/11 03:49:37;;;;;;;3.05;1.80;;;16.30;47.60;;;;;;5092024;28;20409;-42
2022/10/11 03:52:03;;;;;;;4.40;2.00;;;16.30;47.30;;;;;;5092369;28;20266;-43
2022/10/11 03:54:28;;;;;;;5.23;2.10;;;16.30;46.90;;;;;;5093664;28;20176;-44
2022/10/11 03:56:54;;;;;;;3.67;2.53;;;16.20;46.50;;;;;;5095610;28;20428;-45
2022/10/11 03:59:20;;;;;;;6.37;2.50;;;16.20;46.20;;;;;;5096203;28;20172;-41
2022/10/11 04:01:45;;;;;;;5.40;2.60;;;16.10;45.90;;;;;;5096225;28;20173;-41
2022/10/11 04:04:11;;;;;;;6.90;2.50;;;16.10;46.00;;;;;;5096114;28;20534;-42
2022/10/11 04:06:37;;;;;;;5.50;2.03;;;16.10;45.80;;;;;;5095497;28;20202;-44
2022/10/11 04:09:03;;;;;;;4.87;1.93;;;16.10;45.80;;;;;;5095967;28;20199;-45
2022/10/11 04:11:28;;;;;;;8.50;2.43;;;16.10;45.80;;;;;;5095917;28;20175;-43
2022/10/11 04:13:54;;;;;;;3.37;2.13;;;16.10;45.70;;;;;;5096056;28;20168;-42
2022/10/11 04:16:20;;;;;;;8.03;2.00;;;16.10;45.80;;;;;;5095563;28;20176;-41
2022/10/11 04:18:45;;;;;;;10.87;2.10;;;16.10;45.80;;;;;;5095735;28;20207;-42
2022/10/11 04:21:11;;;;;;;8.23;2.30;;;16.10;45.60;;;;;;5095822;28;20172;-44
2022/10/11 04:23:37;;;;;;;5.23;2.00;;;16.10;45.60;;;;;;5094499;28;20176;-45
2022/10/11 04:26:05;;;;;;;4.50;2.57;;;16.00;45.40;;;;;;5095107;28;20188;-44
2022/10/11 04:28:32;;;;;;;5.97;2.35;;;16.00;45.40;;;;;;5095658;28;20718;-44
2022/10/11 04:30:58;;;;;;;3.30;1.40;;;16.00;45.40;;;;;;5095845;28;20229;-43
2022/10/11 04:33:23;;;;;;;3.70;1.47;;;16.00;45.40;;;;;;5095580;28;20164;-44
2022/10/11 04:35:53;;;;;;;3.83;1.90;;;16.00;45.50;;;;;;5095261;28;20172;-45
2022/10/11 04:38:19;;;;;;;8.85;3.13;;;16.00;45.50;;;;;;5094215;28;20199;-42
2022/10/11 04:40:44;;;;;;;3.63;1.90;;;16.00;45.50;;;;;;5095465;28;20168;-42
2022/10/11 04:43:10;;;;;;;6.83;2.20;;;16.00;45.40;;;;;;5095421;28;20160;-44
2022/10/11 04:45:36;;;;;;;4.73;2.67;;;16.00;45.40;;;;;;5095023;28;20164;-44
2022/10/11 04:48:01;;;;;;;4.00;2.10;;;16.00;45.30;;;;;;5095366;28;20555;-43
2022/10/11 04:50:27;;;;;;;3.83;2.33;;;16.00;45.30;;;;;;5095397;28;20530;-41
2022/10/11 04:52:53;;;;;;;7.33;2.40;;;15.90;45.40;;;;;;5095265;28;20646;-43
2022/10/11 04:55:19;;;;;;;4.20;2.13;;;15.90;45.20;;;;;;5095170;28;20659;-44
2022/10/11 04:57:44;;;;;;;4.97;1.80;;;15.80;45.30;;;;;;5094468;28;20561;-42
2022/10/11 05:00:11;;;;;;;5.40;2.33;;;15.80;45.30;;;;;;5095055;28;20417;-44
2022/10/11 05:02:37;;;;;;;6.90;3.65;;;15.80;45.40;;;;;;5095073;28;20651;-43
2022/10/11 05:05:03;;;;;;;4.57;1.93;;;15.80;45.50;;;;;;5094722;28;20182;-43
2022/10/11 05:07:28;;;;;;;7.32;2.67;;;15.80;45.40;;;;;;5093598;28;20216;-43
2022/10/11 05:09:54;;;;;;;4.30;2.40;;;15.70;45.40;;;;;;5094784;28;20700;-44
2022/10/11 05:12:20;;;;;;;9.20;2.80;;;15.70;45.40;;;;;;5094832;28;20164;-45
2022/10/11 05:14:46;;;;;;;4.33;2.77;;;15.60;45.20;;;;;;5094825;28;20164;-42
2022/10/11 05:17:12;;;;;;;3.23;2.17;;;15.60;45.20;;;;;;5093948;28;20559;-43
2022/10/11 05:19:37;;;;;;;6.23;3.97;;;15.50;45.10;;;;;;5094683;28;20175;-43
2022/10/11 05:22:03;;;;;;;3.87;2.10;;;15.40;45.10;;;;;;5094763;28;20405;-42
2022/10/11 05:24:29;;;;;;;8.40;2.07;;;15.40;45.20;;;;;;5094538;28;20593;-43
2022/10/11 05:26:55;;;;;;;3.23;2.40;;;15.30;45.20;;;;;;5093667;28;20203;-43
2022/10/11 05:29:20;;;;;;;5.50;3.13;;;15.30;45.20;;;;;;5094547;28;20249;-45
2022/10/11 05:31:46;;;;;;;6.50;2.63;;;15.20;45.20;;;;;;5094710;28;20160;-42
2022/10/11 05:34:12;;;;;;;3.97;2.20;;;15.20;45.10;;;;;;5094716;28;20168;-43
2022/10/11 05:36:37;;;;;;;6.77;2.60;;;15.20;45.10;;;;;;5093868;28;20203;-43
2022/10/11 05:39:03;;;;;;;7.63;2.20;;;15.00;45.00;;;;;;5094239;28;20734;-43
2022/10/11 05:41:29;;;;;;;5.33;2.20;;;14.90;45.20;;;;;;5094173;28;20267;-42
2022/10/11 05:43:55;;;;;;;5.93;2.20;;;14.90;45.20;;;;;;5094272;28;20409;-43
2022/10/11 05:46:21;;;;;;;8.23;2.53;;;14.80;45.20;;;;;;5093397;28;20198;-44
2022/10/11 05:48:46;;;;;;;3.73;2.10;;;14.70;45.40;;;;;;5094187;28;20183;-42
2022/10/11 05:51:12;;;;;;;8.80;2.50;;;14.60;45.50;;;;;;5094206;28;20398;-43
2022/10/11 05:53:38;;;;;;;10.77;3.72;;;14.60;45.40;;;;;;5094170;28;20178;-42
2022/10/11 05:56:15;;;;;;;5.07;1.83;;;14.50;45.40;;;;;;5093666;28;20180;-42
2022/10/11 05:58:41;;;;;;;7.85;2.35;;;14.50;45.50;;;;;;5094039;28;20187;-42
2022/10/11 06:01:14;;;;;;;5.57;2.57;;;14.40;45.70;;;;;;5093839;28;20692;-43
2022/10/11 06:03:40;;;;;;;7.03;2.47;;;14.30;45.80;;;;;;5093876;28;20176;-43
2022/10/11 06:06:05;;;;;;;6.80;2.80;;;14.30;45.90;;;;;;5093113;28;20203;-44
2022/10/11 06:08:32;;;;;;;7.83;2.80;;;14.30;46.00;;;;;;5093897;28;20195;-42
2022/10/11 06:10:58;;;;;;;4.88;2.85;;;14.40;46.00;;;;;;5093928;28;20177;-43
2022/10/11 06:13:23;;;;;;;7.27;2.67;;;14.40;46.00;;;;;;5093763;28;20168;-43
2022/10/11 06:15:50;;;;;;;4.37;2.53;;;14.40;45.90;;;;;;5093018;28;20195;-43
2022/10/11 06:18:16;;;;;;;9.05;2.80;;;14.50;45.80;;;;;;5093272;28;20211;-44
2022/10/11 06:20:41;;;;;;;6.80;3.17;;;14.60;45.80;;;;;;5092244;28;20187;-45
2022/10/11 06:23:07;;;;;;;8.70;2.00;;;14.60;45.70;;;;;;5093675;28;20717;-43
2022/10/11 06:25:33;;;;;;;5.50;3.10;;;14.70;45.70;;;;;;5093130;28;20176;-44
2022/10/11 06:27:58;;;;;;;6.87;2.67;;;14.70;45.60;;;;;;5093220;28;20566;-44
2022/10/11 06:30:24;;;;;;;7.43;4.50;;;14.80;45.60;;;;;;5093283;28;20203;-44
2022/10/11 06:32:50;;;;;;;7.80;3.60;;;14.90;45.60;;;;;;5093481;28;20535;-43
2022/10/11 06:35:16;;;;;;;3.70;2.80;;;15.00;45.60;;;;;;5093170;28;20631;-45
2022/10/11 06:37:42;;;;;;;5.10;3.27;;;15.10;45.70;;;;;;5092847;28;20283;-43
2022/10/11 06:40:08;;;;;;;7.17;2.43;;;15.20;45.70;;;;;;5093385;28;20578;-41
2022/10/11 06:42:33;;;;;;;7.18;3.17;;;15.40;45.80;;;;;;5093083;28;20527;-42
2022/10/11 06:44:59;;;;;;;6.40;3.20;;;15.50;45.80;;;;;;5092994;28;20171;-41
2022/10/11 06:47:25;;;;;;;8.83;3.00;;;15.70;45.80;;;;;;5092370;28;20211;-40
2022/10/11 06:49:51;;;;;;;5.80;3.27;;;15.80;45.70;;;;;;5093009;28;20670;-42
2022/10/11 06:52:16;;;;;;;7.13;3.17;;;16.00;45.60;;;;;;5092820;28;20643;-44
2022/10/11 06:54:42;;;;;;;5.87;3.37;;;16.10;45.50;;;;;;5093264;28;20179;-41
2022/10/11 06:57:08;;;;;;;11.63;4.87;;;16.30;45.30;;;;;;5092266;28;20176;-41
2022/10/11 06:59:34;;;;;;;9.75;4.32;;;16.50;45.10;;;;;;5092902;28;20191;-42
2022/10/11 07:02:00;;;;;;;9.10;3.77;;;16.60;44.80;;;;;;5092767;28;20203;-41
2022/10/11 07:04:27;;;;;;;6.03;3.00;;;16.70;44.50;;;;;;5092607;28;20167;-41
2022/10/11 07:06:52;;;;;;;14.70;4.22;;;16.90;44.40;;;;;;5092037;28;20277;-42
2022/10/11 07:09:18;;;;;;;20.63;4.83;;;17.00;44.30;;;;;;5092840;28;20208;-41
2022/10/11 07:11:46;;;;;;;11.70;3.70;;;17.10;43.90;;;;;;5092718;28;20164;-41
2022/10/11 07:14:12;;;;;;;6.13;2.85;;;17.20;43.60;;;;;;5092588;28;20166;-42
2022/10/11 07:16:38;;;;;;;6.07;3.30;;;17.30;43.90;;;;;;5092008;28;20258;-42
2022/10/11 07:19:05;;;;;;;10.47;3.20;;;17.50;43.50;;;;;;5092293;28;20200;-43
2022/10/11 07:21:32;;;;;;;14.60;4.70;;;17.70;43.20;;;;;;5092603;28;20182;-41
2022/10/11 07:23:59;;;;;;;11.73;5.07;;;17.80;43.10;;;;;;5092405;28;20592;-42
2022/10/11 07:26:25;;;;;;;7.30;3.65;;;17.90;42.70;;;;;;5091698;28;20275;-42
2022/10/11 07:28:51;;;;;;;11.13;3.87;;;18.00;42.40;;;;;;5090688;28;20279;-41
2022/10/11 07:31:20;;;;;;;6.80;3.50;;;18.10;42.20;;;;;;5092404;28;20777;-43
2022/10/11 07:33:46;;;;;;;10.93;3.28;;;18.20;42.30;;;;;;5092454;28;20203;-41
2022/10/11 07:36:13;;;;;;;7.83;4.40;;;18.20;41.80;;;;;;5091621;28;20207;-42
2022/10/11 07:38:40;;;;;;;8.88;3.33;;;18.30;42.00;;;;;;5092196;28;20417;-43
2022/10/11 07:41:07;;;;;;;16.20;4.05;;;18.40;41.70;;;;;;5092225;28;20168;-43
2022/10/11 07:43:33;;;;;;;13.10;3.85;;;18.50;41.80;;;;;;5092098;28;20168;-41
2022/10/11 07:46:02;;;;;;;8.30;3.23;;;18.60;41.80;;;;;;5091451;28;20190;-42
2022/10/11 07:48:33;;;;;;;10.95;3.85;;;18.70;41.70;;;;;;5091968;28;20432;-43
2022/10/11 07:51:19;;;;;;;7.78;3.08;;;18.80;40.30;;;;;;5092135;28;20172;-44
2022/10/11 07:53:47;;;;;;;6.85;3.60;;;19.00;40.60;;;;;;5092124;28;20764;-42
2022/10/11 07:56:16;;;;;;;7.20;4.05;;;19.10;40.80;;;;;;5091523;28;20198;-44
2022/10/11 07:58:43;;;;;;;11.02;3.20;;;19.30;40.00;;;;;;5092049;28;20328;-45
2022/10/11 08:01:10;;;;;;;10.70;3.50;;;19.40;39.60;;;;;;5092262;28;20183;-44
2022/10/11 08:03:36;;;;;;;11.05;3.00;;;19.50;39.10;;;;;;5092138;28;20168;-43
2022/10/11 08:06:07;;;;;;;6.78;2.13;;;19.60;39.20;;;;;;5091353;28;20267;-44
2022/10/11 08:08:34;;;;;;;7.45;3.60;;;19.70;39.60;;;;;;5091834;28;20199;-42
2022/10/11 08:11:00;;;;;;;10.20;3.30;;;19.90;39.60;;;;;;5091944;28;20225;-44
2022/10/11 08:13:26;;;;;;;7.93;4.23;;;19.90;38.80;;;;;;5091824;28;20168;-44
2022/10/11 08:15:52;;;;;;;8.40;4.03;;;20.00;38.80;;;;;;5091501;28;20213;-44
2022/10/11 08:18:18;;;;;;;9.32;3.05;;;20.00;38.60;;;;;;5091624;28;20726;-44
2022/10/11 08:20:44;;;;;;;11.95;5.05;;;19.90;38.00;;;;;;5091738;28;20206;-44
2022/10/11 08:23:10;;;;;;;6.50;3.00;;;19.90;38.60;;;;;;5091885;28;20172;-44
2022/10/11 08:25:41;;;;;;;8.33;3.73;;;20.00;38.60;;;;;;5091230;28;20221;-44
2022/10/11 08:28:08;;;;;;;5.28;3.17;;;20.10;38.90;;;;;;5091523;28;20449;-44
2022/10/11 08:30:34;;;;;;;9.15;4.15;;;20.20;38.50;;;;;;5091893;28;20606;-44
2022/10/11 08:33:00;;;;;;;8.70;3.20;;;20.40;39.00;;;;;;5091892;28;20168;-44
2022/10/11 08:35:26;;;;;;;5.72;4.13;;;20.50;38.30;;;;;;5091598;28;20175;-44
2022/10/11 08:37:52;;;;;;;7.50;2.90;;;20.60;38.10;;;;;;5091092;28;20219;-44
2022/10/11 08:40:20;;;;;;;13.50;4.22;;;20.80;37.40;;;;;;5092656;28;20188;-44
2022/10/11 08:43:05;;;;;;;11.75;4.32;;;20.90;37.60;;;;;;5095609;28;20203;-45
2022/10/11 08:45:53;;;;;;;12.90;3.85;;;21.00;37.60;;;;;;5095225;28;20172;-44
2022/10/11 08:48:41;;;;;;;8.30;3.20;;;21.20;37.60;;;;;;5095487;28;20275;-44
2022/10/11 08:51:24;;;;;;;9.50;2.90;;;21.30;37.00;;;;;;5095038;28;20179;-45
2022/10/11 08:53:56;;;;;;;8.95;3.10;;;21.50;37.00;;;;;;5095295;28;20612;-44
2022/10/11 08:56:24;;;;;;;8.75;2.92;;;21.70;37.50;;;;;;5094816;28;20199;-46
2022/10/11 08:59:10;;;;;;;9.77;3.25;;;21.80;36.50;;;;;;5095320;28;20559;-45
2022/10/11 09:01:42;;;;;;;7.90;2.60;;;21.90;35.30;;;;;;5083471;28;20184;-45
2022/10/11 09:04:13;;;;;;;6.22;2.80;;;21.80;35.80;;;;;;5095090;28;20523;-45
2022/10/11 09:06:49;;;;;;;6.88;3.70;;;21.90;36.40;;;;;;5094374;28;20678;-45
2022/10/11 09:09:46;;;;;;;8.70;3.42;;;21.90;35.50;;;;;;5094928;28;20581;-45
2022/10/11 09:12:35;;;;;;;8.82;2.95;;;21.90;35.20;;;;;;5094750;28;20215;-45
2022/10/11 09:15:01;;;;;;;10.00;3.67;;;21.90;34.80;;;;;;5094819;28;20172;-45
2022/10/11 09:17:26;;;;;;;5.73;3.00;;;21.90;35.70;;;;;;5094057;28;20207;-46
2022/10/11 09:20:02;;;;;;;6.03;2.07;;;22.10;34.60;;;;;;5094838;28;20643;-45
2022/10/11 09:22:42;;;;;;;8.68;2.30;;;22.20;34.70;;;;;;5094887;28;20647;-45
2022/10/11 09:25:45;;;;;;;8.30;2.67;;;22.20;34.10;;;;;;5094605;28;20217;-44
2022/10/11 09:28:27;;;;;;;12.77;2.95;;;22.20;34.00;;;;;;5094333;28;20278;-44
2022/10/11 09:30:56;;;;;;;8.00;2.53;;;22.10;34.30;;;;;;5094836;28;20179;-46
2022/10/11 09:33:40;;;;;;;13.40;3.35;;;21.90;33.70;;;;;;5094519;28;20574;-46
2022/10/11 09:36:33;;;;;;;6.15;2.17;;;21.70;33.70;;;;;;5093835;28;20654;-45
2022/10/11 09:39:04;;;;;;;8.13;2.75;;;21.60;34.30;;;;;;5083829;28;20590;-46
2022/10/11 09:42:01;;;;;;;12.88;3.17;;;21.40;33.90;;;;;;5094350;28;20198;-46
2022/10/11 09:44:35;;;;;;;9.20;2.70;;;21.30;34.40;;;;;;5094329;28;20159;-45
2022/10/11 09:47:01;;;;;;;6.95;1.95;;;21.10;34.30;;;;;;5093429;28;20204;-45
2022/10/11 09:49:33;;;;;;;8.10;2.10;;;21.00;34.80;;;;;;5094453;28;20172;-46
2022/10/11 09:52:01;;;;;;;5.30;2.40;;;21.00;34.50;;;;;;5093818;28;20554;-45
2022/10/11 09:54:47;;;;;;;3.95;1.85;;;20.90;34.90;;;;;;5094317;28;20180;-45
2022/10/11 09:57:27;;;;;;;11.48;3.30;;;20.90;34.40;;;;;;5093427;28;20192;-46
2022/10/11 10:00:23;;;;;;;6.00;2.10;;;20.70;34.30;;;;;;5093902;28;20167;-45
2022/10/11 10:02:54;;;;;;;7.97;2.10;;;20.60;34.50;;;;;;5091896;28;20190;-46
2022/10/11 10:05:22;;;;;;;6.70;2.92;;;20.60;34.20;;;;;;5094008;28;20508;-45
2022/10/11 10:08:02;;;;;;;6.57;3.08;;;20.70;34.80;;;;;;5093324;28;20242;-45
2022/10/11 10:10:32;;;;;;;5.95;2.53;;;21.00;33.60;;;;;;5093576;28;20183;-44
2022/10/11 10:13:01;;;;;;;5.47;2.20;;;21.20;34.00;;;;;;5094024;28;20241;-45
2022/10/11 10:15:36;;;;;;;6.78;2.40;;;21.40;33.60;;;;;;5093594;28;20631;-46
2022/10/11 10:18:09;;;;;;;4.95;2.03;;;21.60;33.10;;;;;;5093470;28;20808;-45
2022/10/11 10:20:35;;;;;;;8.85;2.75;;;21.60;32.90;;;;;;5093789;28;20228;-45
2022/10/11 10:23:08;;;;;;;8.20;2.00;;;21.40;32.30;;;;;;5093528;28;20168;-45
2022/10/11 10:25:37;;;;;;;7.88;2.45;;;21.20;32.20;;;;;;5092849;28;20163;-45
2022/10/11 10:28:25;;;;;;;13.57;2.70;;;21.20;32.40;;;;;;5093388;28;20276;-45
2022/10/11 10:30:56;;;;;;;7.13;2.75;;;21.20;31.20;;;;;;5093236;28;20172;-45
2022/10/11 10:33:25;;;;;;;5.03;2.00;;;21.30;33.10;;;;;;5093286;28;20180;-45
2022/10/11 10:36:00;;;;;;;4.93;2.30;;;21.40;32.70;;;;;;5092703;28;20165;-46
2022/10/11 10:38:46;;;;;;;6.03;1.92;;;21.50;32.50;;;;;;5093359;28;20234;-44
2022/10/11 10:41:15;;;;;;;9.60;3.10;;;21.50;31.90;;;;;;5093108;28;20619;-44
2022/10/11 10:43:51;;;;;;;7.00;2.00;;;21.40;32.10;;;;;;5093328;28;20180;-45
2022/10/11 10:46:43;;;;;;;3.78;1.60;;;21.20;31.80;;;;;;5092383;28;20282;-45
2022/10/11 10:49:28;;;;;;;4.70;2.05;;;21.10;32.10;;;;;;5092997;28;20278;-44
2022/10/11 10:52:08;;;;;;;8.50;2.80;;;21.10;32.40;;;;;;5092885;28;20170;-44
2022/10/11 10:54:58;;;;;;;4.20;2.20;;;21.20;32.40;;;;;;5093158;28;20160;-45
2022/10/11 10:57:55;;;;;;;9.38;1.95;;;21.30;32.20;;;;;;5092308;28;20195;-44
2022/10/11 11:00:22;;;;;;;7.35;1.85;;;21.60;32.10;;;;;;5091526;28;20612;-44
2022/10/11 11:02:57;;;;;;;7.88;1.83;;;21.70;31.60;;;;;;5092999;28;20209;-44
2022/10/11 11:05:26;;;;;;;9.75;2.92;;;21.80;30.80;;;;;;5092065;28;20233;-44
2022/10/11 11:08:14;;;;;;;10.05;2.10;;;22.00;30.90;;;;;;5091920;28;20210;-44
2022/10/11 11:10:46;;;;;;;7.00;1.48;;;22.50;29.50;;;;;;5092564;28;20171;-44
2022/10/11 11:13:37;;;;;;;7.23;2.00;;;22.80;28.00;;;;;;5092634;28;20251;-45
2022/10/11 11:16:31;;;;;;;4.27;1.90;;;23.00;28.00;;;;;;5092124;28;20394;-44
2022/10/11 11:19:16;;;;;;;5.22;2.20;;;22.80;28.10;;;;;;5092425;28;20450;-44
2022/10/11 11:22:07;;;;;;;3.75;1.60;;;22.60;28.00;;;;;;5092800;28;20565;-45
2022/10/11 11:24:36;;;;;;;5.88;2.10;;;22.20;28.40;;;;;;5092477;28;20171;-45
2022/10/11 11:27:52;;;;;;;4.10;2.93;;;22.20;29.30;;;;;;5091565;28;20575;-45
2022/10/11 11:30:28;;;;;;;5.72;1.60;;;22.40;30.10;;;;;;5092560;28;20398;-44
2022/10/11 11:33:09;;;;;;;8.00;2.83;;;22.40;30.20;;;;;;5092655;28;20168;-45
2022/10/11 11:35:37;;;;;;;7.23;2.10;;;22.50;30.20;;;;;;5091963;28;20406;-44
2022/10/11 11:38:23;;;;;;;11.50;10.40;;;22.70;29.40;;;;;;5092348;28;20434;-44
2022/10/11 11:41:03;;;;;;;6.77;2.73;;;23.00;30.00;;;;;;5092251;28;20642;-45
2022/10/11 11:43:55;;;;;;;6.60;2.67;;;23.20;29.00;;;;;;5092570;28;20413;-44
2022/10/11 11:46:31;;;;;;;3.65;1.60;;;23.20;28.20;;;;;;5091466;28;20405;-44
2022/10/11 11:49:01;;;;;;;4.93;2.33;;;23.10;28.90;;;;;;5092273;28;20217;-45
2022/10/11 11:51:33;;;;;;;2.08;1.50;;;22.90;28.40;;;;;;5092111;28;20402;-44
2022/10/11 11:54:05;;;;;;;3.40;1.40;;;23.00;28.80;;;;;;5092392;28;20164;-45
2022/10/11 11:57:01;;;;;;;4.03;1.93;;;23.50;28.90;;;;;;5091764;28;20508;-45
2022/10/11 11:59:50;;;;;;;4.07;1.80;;;24.20;28.20;;;;;;5091967;28;20406;-45
2022/10/11 12:02:40;;;;;;;6.00;2.60;;;24.30;28.20;;;;;;5092299;28;20393;-45
2022/10/11 12:05:08;;;;;;;7.53;2.27;;;24.10;27.30;;;;;;5092252;28;20482;-45
2022/10/11 12:07:49;;;;;;;7.07;2.77;;;24.00;27.70;;;;;;5091212;28;20501;-44
2022/10/11 12:10:36;;;;;;;4.83;2.43;;;24.10;28.00;;;;;;5091975;28;20417;-45
2022/10/11 12:13:16;;;;;;;9.40;2.17;;;24.20;28.00;;;;;;5091884;28;20439;-45
2022/10/11 12:16:08;;;;;;;4.77;1.90;;;24.10;27.90;;;;;;5093167;28;20406;-44
2022/10/11 12:18:45;;;;;;;8.73;1.90;;;24.10;28.10;;;;;;5095906;28;20446;-44
2022/10/11 12:21:32;;;;;;;5.80;1.53;;;24.10;27.90;;;;;;5095796;28;20947;-44
2022/10/11 12:24:08;;;;;;;5.43;2.20;;;24.30;26.80;;;;;;5095818;28;20393;-44
2022/10/11 12:26:37;;;;;;;4.80;1.93;;;24.30;26.90;;;;;;5095515;28;20786;-44
2022/10/11 12:29:18;;;;;;;4.33;2.10;;;24.50;27.10;;;;;;5095723;28;20456;-45
2022/10/11 12:31:47;;;;;;;5.53;2.20;;;24.70;24.60;;;;;;5095642;28;20908;-45
2022/10/11 12:34:40;;;;;;;4.27;1.80;;;24.90;25.30;;;;;;5095614;28;20399;-45
2022/10/11 12:37:18;;;;;;;4.13;1.47;;;25.20;26.00;;;;;;5094976;28;20484;-45
2022/10/11 12:39:54;;;;;;;5.20;1.90;;;25.30;25.10;;;;;;5095792;28;20499;-44
2022/10/11 12:42:22;;;;;;;3.63;2.03;;;25.30;24.80;;;;;;5095744;28;20392;-46
2022/10/11 12:45:09;;;;;;;4.97;1.90;;;25.70;24.80;;;;;;5095406;28;20405;-46
2022/10/11 12:47:44;;;;;;;7.67;2.10;;;26.10;23.70;;;;;;5094594;28;20464;-45
2022/10/11 12:50:38;;;;;;;7.93;2.03;;;26.60;23.10;;;;;;5095265;28;20389;-47
2022/10/11 12:53:15;;;;;;;7.37;2.20;;;27.10;23.40;;;;;;5095534;28;20840;-44
2022/10/11 12:56:10;;;;;;;4.93;2.37;;;27.30;23.90;;;;;;5095002;28;20389;-47
2022/10/11 12:58:40;;;;;;;5.40;1.80;;;27.40;23.20;;;;;;5092746;28;20450;-47
2022/10/11 13:01:10;;;;;;;6.17;1.90;;;27.40;22.80;;;;;;5095092;28;20406;-46
2022/10/11 13:03:45;;;;;;;4.30;1.43;;;27.30;21.90;;;;;;5095252;28;20487;-46
2022/10/11 13:06:13;;;;;;;7.23;2.17;;;27.00;21.00;;;;;;5094450;28;20773;-47
2022/10/11 13:08:43;;;;;;;5.43;1.70;;;26.80;21.10;;;;;;5094676;28;20426;-46